Aviation Digital Data Service (ADDS)

Output produced by METARs form (1640 UTC 16 June 2019)
found at http://www.aviationweather.gov/metar/data/
 
METAR text: EYVI 161620Z 14005KT 9999 FEW045 BKN140 21/15 Q1015 NOSIG
Conditions at: EYVI (VILNIUS INTL , LT) observed 1620 UTC 16 June 2019
Temperature: 21.0°C (70°F)
Dewpoint: 15.0°C (59°F) [RH = 69%]
Pressure (altimeter): 29.97 inches Hg (1015.0 mb)
Winds: from the SE (140 degrees) at 6 MPH (5 knots; 2.6 m/s)
Visibility: 6 or more miles (10+ km)
Ceiling: 14000 feet AGL
Clouds: few clouds at 4500 feet AGL
broken clouds at 14000 feet AGL
Weather: no significant weather observed at this time

METAR text: EYVI 161550Z 16007KT 9999 SCT045 BKN120 21/15 Q1015 NOSIG
Conditions at: EYVI (VILNIUS INTL , LT) observed 1550 UTC 16 June 2019
Temperature: 21.0°C (70°F)
Dewpoint: 15.0°C (59°F) [RH = 69%]
Pressure (altimeter): 29.97 inches Hg (1015.0 mb)
Winds: from the SSE (160 degrees) at 8 MPH (7 knots; 3.6 m/s)
Visibility: 6 or more miles (10+ km)
Ceiling: 12000 feet AGL
Clouds: scattered clouds at 4500 feet AGL
broken clouds at 12000 feet AGL
Weather: no significant weather observed at this time

METAR text: EYVI 161520Z 14006KT 110V170 9999 BKN049 21/16 Q1015 NOSIG
Conditions at: EYVI (VILNIUS INTL , LT) observed 1520 UTC 16 June 2019
Temperature: 21.0°C (70°F)
Dewpoint: 16.0°C (61°F) [RH = 73%]
Pressure (altimeter): 29.97 inches Hg (1015.0 mb)
Winds: from the SE (140 degrees) at 7 MPH (6 knots; 3.1 m/s)
Visibility: 6 or more miles (10+ km)
Ceiling: 4900 feet AGL
Clouds: broken clouds at 4900 feet AGL
Weather: no significant weather observed at this time

METAR text: EYVI 161450Z 12008KT 090V150 9999 BKN049 20/15 Q1015 NOSIG
Conditions at: EYVI (VILNIUS INTL , LT) observed 1450 UTC 16 June 2019
Temperature: 20.0°C (68°F)
Dewpoint: 15.0°C (59°F) [RH = 73%]
Pressure (altimeter): 29.97 inches Hg (1015.0 mb)
Winds: from the ESE (120 degrees) at 9 MPH (8 knots; 4.1 m/s)
Visibility: 6 or more miles (10+ km)
Ceiling: 4900 feet AGL
Clouds: broken clouds at 4900 feet AGL
Weather: no significant weather observed at this time

METAR text: EYVI 161420Z 12009KT 090V160 9999 BKN048 20/14 Q1015 NOSIG
Conditions at: EYVI (VILNIUS INTL , LT) observed 1420 UTC 16 June 2019
Temperature: 20.0°C (68°F)
Dewpoint: 14.0°C (57°F) [RH = 68%]
Pressure (altimeter): 29.97 inches Hg (1015.0 mb)
Winds: from the ESE (120 degrees) at 10 MPH (9 knots; 4.6 m/s)
Visibility: 6 or more miles (10+ km)
Ceiling: 4800 feet AGL
Clouds: broken clouds at 4800 feet AGL
Weather: no significant weather observed at this time

METAR text: EYVI 161350Z 12008KT 080V160 9999 BKN049 19/15 Q1015 NOSIG
Conditions at: EYVI (VILNIUS INTL , LT) observed 1350 UTC 16 June 2019
Temperature: 19.0°C (66°F)
Dewpoint: 15.0°C (59°F) [RH = 78%]
Pressure (altimeter): 29.97 inches Hg (1015.0 mb)
Winds: from the ESE (120 degrees) at 9 MPH (8 knots; 4.1 m/s)
Visibility: 6 or more miles (10+ km)
Ceiling: 4900 feet AGL
Clouds: broken clouds at 4900 feet AGL
Weather: no significant weather observed at this time

METAR text: EYVI 161320Z 12006KT 090V150 9999 BKN049 19/15 Q1015 NOSIG
Conditions at: EYVI (VILNIUS INTL , LT) observed 1320 UTC 16 June 2019
Temperature: 19.0°C (66°F)
Dewpoint: 15.0°C (59°F) [RH = 78%]
Pressure (altimeter): 29.97 inches Hg (1015.0 mb)
Winds: from the ESE (120 degrees) at 7 MPH (6 knots; 3.1 m/s)
Visibility: 6 or more miles (10+ km)
Ceiling: 4900 feet AGL
Clouds: broken clouds at 4900 feet AGL
Weather: no significant weather observed at this time

METAR text: EYVI 161250Z 12004KT 9999 BKN048CB 18/16 Q1016 NOSIG
Conditions at: EYVI (VILNIUS INTL , LT) observed 1250 UTC 16 June 2019
Temperature: 18.0°C (64°F)
Dewpoint: 16.0°C (61°F) [RH = 88%]
Pressure (altimeter): 30.00 inches Hg (1016.0 mb)
Winds: from the ESE (120 degrees) at 5 MPH (4 knots; 2.1 m/s)
Visibility: 6 or more miles (10+ km)
Ceiling: 4800 feet AGL
Clouds: broken clouds at 4800 feet AGL
Weather: no significant weather observed at this time

METAR text: EYVI 161220Z 13006KT 9999 BKN047CB 18/15 Q1015 NOSIG
Conditions at: EYVI (VILNIUS INTL , LT) observed 1220 UTC 16 June 2019
Temperature: 18.0°C (64°F)
Dewpoint: 15.0°C (59°F) [RH = 83%]
Pressure (altimeter): 29.97 inches Hg (1015.0 mb)
Winds: from the SE (130 degrees) at 7 MPH (6 knots; 3.1 m/s)
Visibility: 6 or more miles (10+ km)
Ceiling: 4700 feet AGL
Clouds: broken clouds at 4700 feet AGL
Weather: no significant weather observed at this time

METAR text: EYVI 161150Z 11003KT 090V160 9999 -SHRA BKN045CB 17/16 Q1016 NOSIG
Conditions at: EYVI (VILNIUS INTL , LT) observed 1150 UTC 16 June 2019
Temperature: 17.0°C (63°F)
Dewpoint: 16.0°C (61°F) [RH = 94%]
Pressure (altimeter): 30.00 inches Hg (1016.0 mb)
Winds: from the ESE (110 degrees) at 3 MPH (3 knots; 1.5 m/s)
Visibility: 6 or more miles (10+ km)
Ceiling: 4500 feet AGL
Clouds: broken clouds at 4500 feet AGL
Weather: -SHRA  (light rain showers)

METAR text: EYVI 161120Z 14004KT 090V180 7000 -SHRA BKN036CB OVC066 17/16 Q1016 NOSIG
Conditions at: EYVI (VILNIUS INTL , LT) observed 1120 UTC 16 June 2019
Temperature: 17.0°C (63°F)
Dewpoint: 16.0°C (61°F) [RH = 94%]
Pressure (altimeter): 30.00 inches Hg (1016.0 mb)
Winds: from the SE (140 degrees) at 5 MPH (4 knots; 2.1 m/s)
Visibility: 4 miles ( 7 km)
Ceiling: 3600 feet AGL
Clouds: broken clouds at 3600 feet AGL
overcast cloud deck at 6600 feet AGL
Weather: -SHRA  (light rain showers)

METAR text: EYVI 161050Z VRB02KT 9999 -SHRA BKN044CB OVC073 18/15 Q1015 NOSIG
Conditions at: EYVI (VILNIUS INTL , LT) observed 1050 UTC 16 June 2019
Temperature: 18.0°C (64°F)
Dewpoint: 15.0°C (59°F) [RH = 83%]
Pressure (altimeter): 29.97 inches Hg (1015.0 mb)
Winds: variable direction winds at 2 MPH (2 knots; 1.0 m/s)
Visibility: 6 or more miles (10+ km)
Ceiling: 4400 feet AGL
Clouds: broken clouds at 4400 feet AGL
overcast cloud deck at 7300 feet AGL
Weather: -SHRA  (light rain showers)

METAR text: EYVI 161020Z VRB06KT 9999 VCSH BKN031CB BKN083 19/14 Q1015 TEMPO VRB28KT 3000 TSRA
Conditions at: EYVI (VILNIUS INTL , LT) observed 1020 UTC 16 June 2019
Temperature: 19.0°C (66°F)
Dewpoint: 14.0°C (57°F) [RH = 73%]
Pressure (altimeter): 29.97 inches Hg (1015.0 mb)
Winds: variable direction winds at 7 MPH (6 knots; 3.1 m/s)
Visibility: 6 or more miles (10+ km)
Ceiling: 3100 feet AGL
Clouds: broken clouds at 3100 feet AGL
broken clouds at 8300 feet AGL
Weather: VCSH  (showers in vicinity)

METAR text: EYVI 160950Z 11010KT 9999 VCSH BKN040CB OVC100 18/14 Q1014 NOSIG
Conditions at: EYVI (VILNIUS INTL , LT) observed 0950 UTC 16 June 2019
Temperature: 18.0°C (64°F)
Dewpoint: 14.0°C (57°F) [RH = 77%]
Pressure (altimeter): 29.94 inches Hg (1014.0 mb)
Winds: from the ESE (110 degrees) at 12 MPH (10 knots; 5.1 m/s)
Visibility: 6 or more miles (10+ km)
Ceiling: 4000 feet AGL
Clouds: broken clouds at 4000 feet AGL
overcast cloud deck at 10000 feet AGL
Weather: VCSH  (showers in vicinity)

METAR text: EYVI 160920Z 13010KT 9999 VCSH BKN035CB BKN092 18/14 Q1014 NOSIG
Conditions at: EYVI (VILNIUS INTL , LT) observed 0920 UTC 16 June 2019
Temperature: 18.0°C (64°F)
Dewpoint: 14.0°C (57°F) [RH = 77%]
Pressure (altimeter): 29.94 inches Hg (1014.0 mb)
Winds: from the SE (130 degrees) at 12 MPH (10 knots; 5.1 m/s)
Visibility: 6 or more miles (10+ km)
Ceiling: 3500 feet AGL
Clouds: broken clouds at 3500 feet AGL
broken clouds at 9200 feet AGL
Weather: VCSH  (showers in vicinity)

METAR text: EYVI 160850Z 13010KT 100V160 9999 SCT031CB BKN098 18/15 Q1015 NOSIG
Conditions at: EYVI (VILNIUS INTL , LT) observed 0850 UTC 16 June 2019
Temperature: 18.0°C (64°F)
Dewpoint: 15.0°C (59°F) [RH = 83%]
Pressure (altimeter): 29.97 inches Hg (1015.0 mb)
Winds: from the SE (130 degrees) at 12 MPH (10 knots; 5.1 m/s)
Visibility: 6 or more miles (10+ km)
Ceiling: 9800 feet AGL
Clouds: scattered clouds at 3100 feet AGL
broken clouds at 9800 feet AGL
Weather: no significant weather observed at this time

METAR text: EYVI 160827Z 14010KT 9999 SCT043CB BKN097 17/14 Q1015 TEMPO TSRA
Conditions at: EYVI (VILNIUS INTL , LT) observed 0827 UTC 16 June 2019
Temperature: 17.0°C (63°F)
Dewpoint: 14.0°C (57°F) [RH = 82%]
Pressure (altimeter): 29.97 inches Hg (1015.0 mb)
Winds: from the SE (140 degrees) at 12 MPH (10 knots; 5.1 m/s)
Visibility: 6 or more miles (10+ km)
Ceiling: 9700 feet AGL
Clouds: scattered clouds at 4300 feet AGL
broken clouds at 9700 feet AGL
Weather: no significant weather observed at this time

METAR text: EYVI 160820Z 14007KT 100V230 9999 SCT025CB BKN074 17/15 Q1015 TEMPO TSRA
Conditions at: EYVI (VILNIUS INTL , LT) observed 0820 UTC 16 June 2019
Temperature: 17.0°C (63°F)
Dewpoint: 15.0°C (59°F) [RH = 88%]
Pressure (altimeter): 29.97 inches Hg (1015.0 mb)
Winds: from the SE (140 degrees) at 8 MPH (7 knots; 3.6 m/s)
Visibility: 6 or more miles (10+ km)
Ceiling: 7400 feet AGL
Clouds: scattered clouds at 2500 feet AGL
broken clouds at 7400 feet AGL
Weather: no significant weather observed at this time

METAR text: EYVI 160750Z 10009KT 9999 -SHRA BKN044CB BKN099 16/14 Q1014 NOSIG
Conditions at: EYVI (VILNIUS INTL , LT) observed 0750 UTC 16 June 2019
Temperature: 16.0°C (61°F)
Dewpoint: 14.0°C (57°F) [RH = 88%]
Pressure (altimeter): 29.94 inches Hg (1014.0 mb)
Winds: from the E (100 degrees) at 10 MPH (9 knots; 4.6 m/s)
Visibility: 6 or more miles (10+ km)
Ceiling: 4400 feet AGL
Clouds: broken clouds at 4400 feet AGL
broken clouds at 9900 feet AGL
Weather: -SHRA  (light rain showers)

METAR text: EYVI 160720Z 10005KT 080V140 9999 -SHRA BKN049CB OVC100 15/14 Q1015 NOSIG
Conditions at: EYVI (VILNIUS INTL , LT) observed 0720 UTC 16 June 2019
Temperature: 15.0°C (59°F)
Dewpoint: 14.0°C (57°F) [RH = 94%]
Pressure (altimeter): 29.97 inches Hg (1015.0 mb)
Winds: from the E (100 degrees) at 6 MPH (5 knots; 2.6 m/s)
Visibility: 6 or more miles (10+ km)
Ceiling: 4900 feet AGL
Clouds: broken clouds at 4900 feet AGL
overcast cloud deck at 10000 feet AGL
Weather: -SHRA  (light rain showers)

METAR text: EYVI 160650Z 08009KT 9999 -SHRA OVC046CB 15/14 Q1015 TEMPO 3000 TSRA
Conditions at: EYVI (VILNIUS INTL , LT) observed 0650 UTC 16 June 2019
Temperature: 15.0°C (59°F)
Dewpoint: 14.0°C (57°F) [RH = 94%]
Pressure (altimeter): 29.97 inches Hg (1015.0 mb)
Winds: from the E (80 degrees) at 10 MPH (9 knots; 4.6 m/s)
Visibility: 6 or more miles (10+ km)
Ceiling: 4600 feet AGL
Clouds: overcast cloud deck at 4600 feet AGL
Weather: -SHRA  (light rain showers)

METAR text: EYVI 160622Z 05007KT 010V070 3700 SHRA BKN045CB 15/14 Q1017 TEMPO 3000 TSRA
Conditions at: EYVI (VILNIUS INTL , LT) observed 0622 UTC 16 June 2019
Temperature: 15.0°C (59°F)
Dewpoint: 14.0°C (57°F) [RH = 94%]
Pressure (altimeter): 30.03 inches Hg (1017.0 mb)
Winds: from the NE (50 degrees) at 8 MPH (7 knots; 3.6 m/s)
Visibility: 2.30 miles (3.70 km)
Ceiling: 4500 feet AGL
Clouds: broken clouds at 4500 feet AGL
Weather: SHRA  (rain showers)

METAR text: EYVI 160620Z 04007KT 010V070 9999 -SHRA BKN042CB BKN091 15/14 Q1017 TEMPO 3000 TSRA
Conditions at: EYVI (VILNIUS INTL , LT) observed 0620 UTC 16 June 2019
Temperature: 15.0°C (59°F)
Dewpoint: 14.0°C (57°F) [RH = 94%]
Pressure (altimeter): 30.03 inches Hg (1017.0 mb)
Winds: from the NE (40 degrees) at 8 MPH (7 knots; 3.6 m/s)
Visibility: 6 or more miles (10+ km)
Ceiling: 4200 feet AGL
Clouds: broken clouds at 4200 feet AGL
broken clouds at 9100 feet AGL
Weather: -SHRA  (light rain showers)

METAR text: EYVI 160550Z 27011KT 9999 VCTS BKN044CB 16/14 Q1018 TEMPO 3000 TSRA
Conditions at: EYVI (VILNIUS INTL , LT) observed 0550 UTC 16 June 2019
Temperature: 16.0°C (61°F)
Dewpoint: 14.0°C (57°F) [RH = 88%]
Pressure (altimeter): 30.06 inches Hg (1018.0 mb)
Winds: from the W (270 degrees) at 13 MPH (11 knots; 5.7 m/s)
Visibility: 6 or more miles (10+ km)
Ceiling: 4400 feet AGL
Clouds: broken clouds at 4400 feet AGL
Weather: VCTS  (thunderstorm in vicinity)

METAR text: EYVI 160544Z 02005KT 280V050 9999 TSRA BKN044CB 16/14 Q1017 TEMPO 3000 TSRA
Conditions at: EYVI (VILNIUS INTL , LT) observed 0544 UTC 16 June 2019
Temperature: 16.0°C (61°F)
Dewpoint: 14.0°C (57°F) [RH = 88%]
Pressure (altimeter): 30.03 inches Hg (1017.0 mb)
Winds: from the NNE (20 degrees) at 6 MPH (5 knots; 2.6 m/s)
Visibility: 6 or more miles (10+ km)
Ceiling: 4400 feet AGL
Clouds: broken clouds at 4400 feet AGL
Weather: TSRA  (rain associated with thunderstorm(s))

METAR text: EYVI 160520Z 03005KT 340V050 9999 -SHRA VCTS BKN047CB 16/14 Q1016 TEMPO 3000 TSRA
Conditions at: EYVI (VILNIUS INTL , LT) observed 0520 UTC 16 June 2019
Temperature: 16.0°C (61°F)
Dewpoint: 14.0°C (57°F) [RH = 88%]
Pressure (altimeter): 30.00 inches Hg (1016.0 mb)
Winds: from the NNE (30 degrees) at 6 MPH (5 knots; 2.6 m/s)
Visibility: 6 or more miles (10+ km)
Ceiling: 4700 feet AGL
Clouds: broken clouds at 4700 feet AGL
Weather: -SHRA VCTS  (light rain showers, thunderstorm in vicinity)

METAR text: EYVI 160450Z 31005KT 280V340 9999 VCTS BKN047CB BKN088 17/14 Q1017 RESHRA TEMPO 3000 TSRA
Conditions at: EYVI (VILNIUS INTL , LT) observed 0450 UTC 16 June 2019
Temperature: 17.0°C (63°F)
Dewpoint: 14.0°C (57°F) [RH = 82%]
Pressure (altimeter): 30.03 inches Hg (1017.0 mb)
Winds: from the NW (310 degrees) at 6 MPH (5 knots; 2.6 m/s)
Visibility: 6 or more miles (10+ km)
Ceiling: 4700 feet AGL
Clouds: broken clouds at 4700 feet AGL
broken clouds at 8800 feet AGL
Weather: VCTS  (thunderstorm in vicinity)

METAR text: EYVI 160420Z 11005KT 050V140 9999 TSRA BKN046CB 17/12 Q1015 TEMPO 3000 TSRA
Conditions at: EYVI (VILNIUS INTL , LT) observed 0420 UTC 16 June 2019
Temperature: 17.0°C (63°F)
Dewpoint: 12.0°C (54°F) [RH = 72%]
Pressure (altimeter): 29.97 inches Hg (1015.0 mb)
Winds: from the ESE (110 degrees) at 6 MPH (5 knots; 2.6 m/s)
Visibility: 6 or more miles (10+ km)
Ceiling: 4600 feet AGL
Clouds: broken clouds at 4600 feet AGL
Weather: TSRA  (rain associated with thunderstorm(s))

METAR text: EYVI 160416Z 10004KT 050V160 9999 TSRA BKN046CB BKN082 18/12 Q1015 TEMPO 3000 TSRA
Conditions at: EYVI (VILNIUS INTL , LT) observed 0416 UTC 16 June 2019
Temperature: 18.0°C (64°F)
Dewpoint: 12.0°C (54°F) [RH = 68%]
Pressure (altimeter): 29.97 inches Hg (1015.0 mb)
Winds: from the E (100 degrees) at 5 MPH (4 knots; 2.1 m/s)
Visibility: 6 or more miles (10+ km)
Ceiling: 4600 feet AGL
Clouds: broken clouds at 4600 feet AGL
broken clouds at 8200 feet AGL
Weather: TSRA  (rain associated with thunderstorm(s))

METAR text: EYVI 160350Z 12006KT 9999 VCTS BKN047CB 18/11 Q1015 TEMPO 3000 TSRA
Conditions at: EYVI (VILNIUS INTL , LT) observed 0350 UTC 16 June 2019
Temperature: 18.0°C (64°F)
Dewpoint: 11.0°C (52°F) [RH = 64%]
Pressure (altimeter): 29.97 inches Hg (1015.0 mb)
Winds: from the ESE (120 degrees) at 7 MPH (6 knots; 3.1 m/s)
Visibility: 6 or more miles (10+ km)
Ceiling: 4700 feet AGL
Clouds: broken clouds at 4700 feet AGL
Weather: VCTS  (thunderstorm in vicinity)

METAR text: EYVI 160320Z 11008KT 9999 BKN051CB 18/12 Q1015 TEMPO 3000 TSRA
Conditions at: EYVI (VILNIUS INTL , LT) observed 0320 UTC 16 June 2019
Temperature: 18.0°C (64°F)
Dewpoint: 12.0°C (54°F) [RH = 68%]
Pressure (altimeter): 29.97 inches Hg (1015.0 mb)
Winds: from the ESE (110 degrees) at 9 MPH (8 knots; 4.1 m/s)
Visibility: 6 or more miles (10+ km)
Ceiling: 5100 feet AGL
Clouds: broken clouds at 5100 feet AGL
Weather: no significant weather observed at this time

METAR text: EYVI 160250Z 11007KT CAVOK 17/11 Q1015 NOSIG
Conditions at: EYVI (VILNIUS INTL , LT) observed 0250 UTC 16 June 2019
Temperature: 17.0°C (63°F)
Dewpoint: 11.0°C (52°F) [RH = 68%]
Pressure (altimeter): 29.97 inches Hg (1015.0 mb)
Winds: from the ESE (110 degrees) at 8 MPH (7 knots; 3.6 m/s)
Visibility: 6 or more miles (10+ km)
Ceiling: ceiling and visibility are OK
Clouds: unknown
Weather: no significant weather observed at this time

METAR text: EYVI 160220Z 12006KT CAVOK 17/11 Q1015 NOSIG
Conditions at: EYVI (VILNIUS INTL , LT) observed 0220 UTC 16 June 2019
Temperature: 17.0°C (63°F)
Dewpoint: 11.0°C (52°F) [RH = 68%]
Pressure (altimeter): 29.97 inches Hg (1015.0 mb)
Winds: from the ESE (120 degrees) at 7 MPH (6 knots; 3.1 m/s)
Visibility: 6 or more miles (10+ km)
Ceiling: ceiling and visibility are OK
Clouds: unknown
Weather: no significant weather observed at this time

METAR text: EYVI 160156Z 12005KT CAVOK 17/11 Q1015 NOSIG
Conditions at: EYVI (VILNIUS INTL , LT) observed 0156 UTC 16 June 2019
Temperature: 17.0°C (63°F)
Dewpoint: 11.0°C (52°F) [RH = 68%]
Pressure (altimeter): 29.97 inches Hg (1015.0 mb)
Winds: from the ESE (120 degrees) at 6 MPH (5 knots; 2.6 m/s)
Visibility: 6 or more miles (10+ km)
Ceiling: ceiling and visibility are OK
Clouds: unknown
Weather: no significant weather observed at this time

METAR text: EYVI 160150Z VRB02KT CAVOK 16/11 Q1015 NOSIG
Conditions at: EYVI (VILNIUS INTL , LT) observed 0150 UTC 16 June 2019
Temperature: 16.0°C (61°F)
Dewpoint: 11.0°C (52°F) [RH = 72%]
Pressure (altimeter): 29.97 inches Hg (1015.0 mb)
Winds: variable direction winds at 2 MPH (2 knots; 1.0 m/s)
Visibility: 6 or more miles (10+ km)
Ceiling: ceiling and visibility are OK
Clouds: unknown
Weather: no significant weather observed at this time

METAR text: EYVI 160120Z 12003KT 090V220 CAVOK 17/11 Q1015 NOSIG
Conditions at: EYVI (VILNIUS INTL , LT) observed 0120 UTC 16 June 2019
Temperature: 17.0°C (63°F)
Dewpoint: 11.0°C (52°F) [RH = 68%]
Pressure (altimeter): 29.97 inches Hg (1015.0 mb)
Winds: from the ESE (120 degrees) at 3 MPH (3 knots; 1.5 m/s)
Visibility: 6 or more miles (10+ km)
Ceiling: ceiling and visibility are OK
Clouds: unknown
Weather: no significant weather observed at this time

METAR text: EYVI 160050Z 11003KT 070V160 CAVOK 17/11 Q1016 NOSIG
Conditions at: EYVI (VILNIUS INTL , LT) observed 0050 UTC 16 June 2019
Temperature: 17.0°C (63°F)
Dewpoint: 11.0°C (52°F) [RH = 68%]
Pressure (altimeter): 30.00 inches Hg (1016.0 mb)
Winds: from the ESE (110 degrees) at 3 MPH (3 knots; 1.5 m/s)
Visibility: 6 or more miles (10+ km)
Ceiling: ceiling and visibility are OK
Clouds: unknown
Weather: no significant weather observed at this time

METAR text: EYVI 160020Z 12004KT 090V160 CAVOK 17/11 Q1016 NOSIG
Conditions at: EYVI (VILNIUS INTL , LT) observed 0020 UTC 16 June 2019
Temperature: 17.0°C (63°F)
Dewpoint: 11.0°C (52°F) [RH = 68%]
Pressure (altimeter): 30.00 inches Hg (1016.0 mb)
Winds: from the ESE (120 degrees) at 5 MPH (4 knots; 2.1 m/s)
Visibility: 6 or more miles (10+ km)
Ceiling: ceiling and visibility are OK
Clouds: unknown
Weather: no significant weather observed at this time

METAR text: EYVI 152350Z 10003KT 060V130 CAVOK 17/11 Q1016 NOSIG
Conditions at: EYVI (VILNIUS INTL , LT) observed 2350 UTC 15 June 2019
Temperature: 17.0°C (63°F)
Dewpoint: 11.0°C (52°F) [RH = 68%]
Pressure (altimeter): 30.00 inches Hg (1016.0 mb)
Winds: from the E (100 degrees) at 3 MPH (3 knots; 1.5 m/s)
Visibility: 6 or more miles (10+ km)
Ceiling: ceiling and visibility are OK
Clouds: unknown
Weather: no significant weather observed at this time

METAR text: EYVI 152320Z 10003KT 060V150 CAVOK 18/11 Q1016 NOSIG
Conditions at: EYVI (VILNIUS INTL , LT) observed 2320 UTC 15 June 2019
Temperature: 18.0°C (64°F)
Dewpoint: 11.0°C (52°F) [RH = 64%]
Pressure (altimeter): 30.00 inches Hg (1016.0 mb)
Winds: from the E (100 degrees) at 3 MPH (3 knots; 1.5 m/s)
Visibility: 6 or more miles (10+ km)
Ceiling: ceiling and visibility are OK
Clouds: unknown
Weather: no significant weather observed at this time

METAR text: EYVI 152250Z 09005KT CAVOK 18/11 Q1016 NOSIG
Conditions at: EYVI (VILNIUS INTL , LT) observed 2250 UTC 15 June 2019
Temperature: 18.0°C (64°F)
Dewpoint: 11.0°C (52°F) [RH = 64%]
Pressure (altimeter): 30.00 inches Hg (1016.0 mb)
Winds: from the E (90 degrees) at 6 MPH (5 knots; 2.6 m/s)
Visibility: 6 or more miles (10+ km)
Ceiling: ceiling and visibility are OK
Clouds: unknown
Weather: no significant weather observed at this time

METAR text: EYVI 152220Z 10004KT CAVOK 17/11 Q1017 NOSIG
Conditions at: EYVI (VILNIUS INTL , LT) observed 2220 UTC 15 June 2019
Temperature: 17.0°C (63°F)
Dewpoint: 11.0°C (52°F) [RH = 68%]
Pressure (altimeter): 30.03 inches Hg (1017.0 mb)
Winds: from the E (100 degrees) at 5 MPH (4 knots; 2.1 m/s)
Visibility: 6 or more miles (10+ km)
Ceiling: ceiling and visibility are OK
Clouds: unknown
Weather: no significant weather observed at this time

METAR text: EYVI 152150Z VRB01KT CAVOK 18/11 Q1017 NOSIG
Conditions at: EYVI (VILNIUS INTL , LT) observed 2150 UTC 15 June 2019
Temperature: 18.0°C (64°F)
Dewpoint: 11.0°C (52°F) [RH = 64%]
Pressure (altimeter): 30.03 inches Hg (1017.0 mb)
Winds: variable direction winds at 1 MPH (1 knots; 0.5 m/s)
Visibility: 6 or more miles (10+ km)
Ceiling: ceiling and visibility are OK
Clouds: unknown
Weather: no significant weather observed at this time

METAR text: EYVI 152120Z 07004KT CAVOK 18/11 Q1016 NOSIG
Conditions at: EYVI (VILNIUS INTL , LT) observed 2120 UTC 15 June 2019
Temperature: 18.0°C (64°F)
Dewpoint: 11.0°C (52°F) [RH = 64%]
Pressure (altimeter): 30.00 inches Hg (1016.0 mb)
Winds: from the ENE (70 degrees) at 5 MPH (4 knots; 2.1 m/s)
Visibility: 6 or more miles (10+ km)
Ceiling: ceiling and visibility are OK
Clouds: unknown
Weather: no significant weather observed at this time

METAR text: EYVI 152050Z 06004KT CAVOK 19/10 Q1016 NOSIG
Conditions at: EYVI (VILNIUS INTL , LT) observed 2050 UTC 15 June 2019
Temperature: 19.0°C (66°F)
Dewpoint: 10.0°C (50°F) [RH = 56%]
Pressure (altimeter): 30.00 inches Hg (1016.0 mb)
Winds: from the ENE (60 degrees) at 5 MPH (4 knots; 2.1 m/s)
Visibility: 6 or more miles (10+ km)
Ceiling: ceiling and visibility are OK
Clouds: unknown
Weather: no significant weather observed at this time

METAR text: EYVI 152020Z 07004KT CAVOK 19/10 Q1016 NOSIG
Conditions at: EYVI (VILNIUS INTL , LT) observed 2020 UTC 15 June 2019
Temperature: 19.0°C (66°F)
Dewpoint: 10.0°C (50°F) [RH = 56%]
Pressure (altimeter): 30.00 inches Hg (1016.0 mb)
Winds: from the ENE (70 degrees) at 5 MPH (4 knots; 2.1 m/s)
Visibility: 6 or more miles (10+ km)
Ceiling: ceiling and visibility are OK
Clouds: unknown
Weather: no significant weather observed at this time

METAR text: EYVI 151950Z 05005KT CAVOK 20/09 Q1016 NOSIG
Conditions at: EYVI (VILNIUS INTL , LT) observed 1950 UTC 15 June 2019
Temperature: 20.0°C (68°F)
Dewpoint: 9.0°C (48°F) [RH = 49%]
Pressure (altimeter): 30.00 inches Hg (1016.0 mb)
Winds: from the NE (50 degrees) at 6 MPH (5 knots; 2.6 m/s)
Visibility: 6 or more miles (10+ km)
Ceiling: ceiling and visibility are OK
Clouds: unknown
Weather: no significant weather observed at this time

METAR text: EYVI 151920Z 05004KT CAVOK 21/09 Q1016 NOSIG
Conditions at: EYVI (VILNIUS INTL , LT) observed 1920 UTC 15 June 2019
Temperature: 21.0°C (70°F)
Dewpoint: 9.0°C (48°F) [RH = 46%]
Pressure (altimeter): 30.00 inches Hg (1016.0 mb)
Winds: from the NE (50 degrees) at 5 MPH (4 knots; 2.1 m/s)
Visibility: 6 or more miles (10+ km)
Ceiling: ceiling and visibility are OK
Clouds: unknown
Weather: no significant weather observed at this time

METAR text: EYVI 151850Z 05005KT CAVOK 21/09 Q1016 NOSIG
Conditions at: EYVI (VILNIUS INTL , LT) observed 1850 UTC 15 June 2019
Temperature: 21.0°C (70°F)
Dewpoint: 9.0°C (48°F) [RH = 46%]
Pressure (altimeter): 30.00 inches Hg (1016.0 mb)
Winds: from the NE (50 degrees) at 6 MPH (5 knots; 2.6 m/s)
Visibility: 6 or more miles (10+ km)
Ceiling: ceiling and visibility are OK
Clouds: unknown
Weather: no significant weather observed at this time

METAR text: EYVI 151820Z 04005KT CAVOK 22/09 Q1016 NOSIG
Conditions at: EYVI (VILNIUS INTL , LT) observed 1820 UTC 15 June 2019
Temperature: 22.0°C (72°F)
Dewpoint: 9.0°C (48°F) [RH = 43%]
Pressure (altimeter): 30.00 inches Hg (1016.0 mb)
Winds: from the NE (40 degrees) at 6 MPH (5 knots; 2.6 m/s)
Visibility: 6 or more miles (10+ km)
Ceiling: ceiling and visibility are OK
Clouds: unknown
Weather: no significant weather observed at this time

METAR text: EYVI 151750Z 03008KT CAVOK 23/09 Q1016 NOSIG
Conditions at: EYVI (VILNIUS INTL , LT) observed 1750 UTC 15 June 2019
Temperature: 23.0°C (73°F)
Dewpoint: 9.0°C (48°F) [RH = 41%]
Pressure (altimeter): 30.00 inches Hg (1016.0 mb)
Winds: from the NNE (30 degrees) at 9 MPH (8 knots; 4.1 m/s)
Visibility: 6 or more miles (10+ km)
Ceiling: ceiling and visibility are OK
Clouds: unknown
Weather: no significant weather observed at this time

METAR text: EYVI 151720Z 04007KT CAVOK 24/08 Q1017 NOSIG
Conditions at: EYVI (VILNIUS INTL , LT) observed 1720 UTC 15 June 2019
Temperature: 24.0°C (75°F)
Dewpoint: 8.0°C (46°F) [RH = 36%]
Pressure (altimeter): 30.03 inches Hg (1017.0 mb)
Winds: from the NE (40 degrees) at 8 MPH (7 knots; 3.6 m/s)
Visibility: 6 or more miles (10+ km)
Ceiling: ceiling and visibility are OK
Clouds: unknown
Weather: no significant weather observed at this time

METAR text: EYVI 151650Z 03010KT 360V060 CAVOK 25/08 Q1017 NOSIG
Conditions at: EYVI (VILNIUS INTL , LT) observed 1650 UTC 15 June 2019
Temperature: 25.0°C (77°F)
Dewpoint: 8.0°C (46°F) [RH = 34%]
Pressure (altimeter): 30.03 inches Hg (1017.0 mb)
Winds: from the NNE (30 degrees) at 12 MPH (10 knots; 5.1 m/s)
Visibility: 6 or more miles (10+ km)
Ceiling: ceiling and visibility are OK
Clouds: unknown
Weather: no significant weather observed at this time

METAR text: EYVI 151620Z 03010KT CAVOK 25/08 Q1017 NOSIG
Conditions at: EYVI (VILNIUS INTL , LT) observed 1620 UTC 15 June 2019
Temperature: 25.0°C (77°F)
Dewpoint: 8.0°C (46°F) [RH = 34%]
Pressure (altimeter): 30.03 inches Hg (1017.0 mb)
Winds: from the NNE (30 degrees) at 12 MPH (10 knots; 5.1 m/s)
Visibility: 6 or more miles (10+ km)
Ceiling: ceiling and visibility are OK
Clouds: unknown
Weather: no significant weather observed at this time

METAR text: EYVI 151550Z 01009KT 340V040 CAVOK 26/09 Q1017 NOSIG
Conditions at: EYVI (VILNIUS INTL , LT) observed 1550 UTC 15 June 2019
Temperature: 26.0°C (79°F)
Dewpoint: 9.0°C (48°F) [RH = 34%]
Pressure (altimeter): 30.03 inches Hg (1017.0 mb)
Winds: from the N (10 degrees) at 10 MPH (9 knots; 4.6 m/s)
Visibility: 6 or more miles (10+ km)
Ceiling: ceiling and visibility are OK
Clouds: unknown
Weather: no significant weather observed at this time

METAR text: EYVI 151520Z 02007KT 350V050 CAVOK 26/10 Q1017 NOSIG
Conditions at: EYVI (VILNIUS INTL , LT) observed 1520 UTC 15 June 2019
Temperature: 26.0°C (79°F)
Dewpoint: 10.0°C (50°F) [RH = 37%]
Pressure (altimeter): 30.03 inches Hg (1017.0 mb)
Winds: from the NNE (20 degrees) at 8 MPH (7 knots; 3.6 m/s)
Visibility: 6 or more miles (10+ km)
Ceiling: ceiling and visibility are OK
Clouds: unknown
Weather: no significant weather observed at this time

METAR text: EYVI 151450Z 02008KT 340V050 CAVOK 26/09 Q1017 NOSIG
Conditions at: EYVI (VILNIUS INTL , LT) observed 1450 UTC 15 June 2019
Temperature: 26.0°C (79°F)
Dewpoint: 9.0°C (48°F) [RH = 34%]
Pressure (altimeter): 30.03 inches Hg (1017.0 mb)
Winds: from the NNE (20 degrees) at 9 MPH (8 knots; 4.1 m/s)
Visibility: 6 or more miles (10+ km)
Ceiling: ceiling and visibility are OK
Clouds: unknown
Weather: no significant weather observed at this time

METAR text: EYVI 151420Z 01006KT 320V050 CAVOK 26/09 Q1017 NOSIG
Conditions at: EYVI (VILNIUS INTL , LT) observed 1420 UTC 15 June 2019
Temperature: 26.0°C (79°F)
Dewpoint: 9.0°C (48°F) [RH = 34%]
Pressure (altimeter): 30.03 inches Hg (1017.0 mb)
Winds: from the N (10 degrees) at 7 MPH (6 knots; 3.1 m/s)
Visibility: 6 or more miles (10+ km)
Ceiling: ceiling and visibility are OK
Clouds: unknown
Weather: no significant weather observed at this time

METAR text: EYVI 151350Z 34007KT 300V010 CAVOK 26/09 Q1017 NOSIG
Conditions at: EYVI (VILNIUS INTL , LT) observed 1350 UTC 15 June 2019
Temperature: 26.0°C (79°F)
Dewpoint: 9.0°C (48°F) [RH = 34%]
Pressure (altimeter): 30.03 inches Hg (1017.0 mb)
Winds: from the NNW (340 degrees) at 8 MPH (7 knots; 3.6 m/s)
Visibility: 6 or more miles (10+ km)
Ceiling: ceiling and visibility are OK
Clouds: unknown
Weather: no significant weather observed at this time

METAR text: EYVI 151320Z VRB05KT CAVOK 25/09 Q1018 NOSIG
Conditions at: EYVI (VILNIUS INTL , LT) observed 1320 UTC 15 June 2019
Temperature: 25.0°C (77°F)
Dewpoint: 9.0°C (48°F) [RH = 36%]
Pressure (altimeter): 30.06 inches Hg (1018.0 mb)
Winds: variable direction winds at 6 MPH (5 knots; 2.6 m/s)
Visibility: 6 or more miles (10+ km)
Ceiling: ceiling and visibility are OK
Clouds: unknown
Weather: no significant weather observed at this time

METAR text: EYVI 151250Z 05006KT 350V080 CAVOK 26/11 Q1018 NOSIG
Conditions at: EYVI (VILNIUS INTL , LT) observed 1250 UTC 15 June 2019
Temperature: 26.0°C (79°F)
Dewpoint: 11.0°C (52°F) [RH = 39%]
Pressure (altimeter): 30.06 inches Hg (1018.0 mb)
Winds: from the NE (50 degrees) at 7 MPH (6 knots; 3.1 m/s)
Visibility: 6 or more miles (10+ km)
Ceiling: ceiling and visibility are OK
Clouds: unknown
Weather: no significant weather observed at this time

METAR text: EYVI 151220Z VRB06KT CAVOK 26/11 Q1018 NOSIG
Conditions at: EYVI (VILNIUS INTL , LT) observed 1220 UTC 15 June 2019
Temperature: 26.0°C (79°F)
Dewpoint: 11.0°C (52°F) [RH = 39%]
Pressure (altimeter): 30.06 inches Hg (1018.0 mb)
Winds: variable direction winds at 7 MPH (6 knots; 3.1 m/s)
Visibility: 6 or more miles (10+ km)
Ceiling: ceiling and visibility are OK
Clouds: unknown
Weather: no significant weather observed at this time

METAR text: EYVI 151150Z 32007KT 270V360 CAVOK 26/11 Q1018 NOSIG
Conditions at: EYVI (VILNIUS INTL , LT) observed 1150 UTC 15 June 2019
Temperature: 26.0°C (79°F)
Dewpoint: 11.0°C (52°F) [RH = 39%]
Pressure (altimeter): 30.06 inches Hg (1018.0 mb)
Winds: from the NW (320 degrees) at 8 MPH (7 knots; 3.6 m/s)
Visibility: 6 or more miles (10+ km)
Ceiling: ceiling and visibility are OK
Clouds: unknown
Weather: no significant weather observed at this time

METAR text: EYVI 151120Z VRB04KT CAVOK 26/11 Q1018 NOSIG
Conditions at: EYVI (VILNIUS INTL , LT) observed 1120 UTC 15 June 2019
Temperature: 26.0°C (79°F)
Dewpoint: 11.0°C (52°F) [RH = 39%]
Pressure (altimeter): 30.06 inches Hg (1018.0 mb)
Winds: variable direction winds at 5 MPH (4 knots; 2.1 m/s)
Visibility: 6 or more miles (10+ km)
Ceiling: ceiling and visibility are OK
Clouds: unknown
Weather: no significant weather observed at this time

METAR text: EYVI 151050Z 35007KT 280V080 CAVOK 25/11 Q1019 NOSIG
Conditions at: EYVI (VILNIUS INTL , LT) observed 1050 UTC 15 June 2019
Temperature: 25.0°C (77°F)
Dewpoint: 11.0°C (52°F) [RH = 41%]
Pressure (altimeter): 30.09 inches Hg (1019.0 mb)
Winds: from the N (350 degrees) at 8 MPH (7 knots; 3.6 m/s)
Visibility: 6 or more miles (10+ km)
Ceiling: ceiling and visibility are OK
Clouds: unknown
Weather: no significant weather observed at this time

METAR text: EYVI 151020Z VRB05KT CAVOK 25/11 Q1019 NOSIG
Conditions at: EYVI (VILNIUS INTL , LT) observed 1020 UTC 15 June 2019
Temperature: 25.0°C (77°F)
Dewpoint: 11.0°C (52°F) [RH = 41%]
Pressure (altimeter): 30.09 inches Hg (1019.0 mb)
Winds: variable direction winds at 6 MPH (5 knots; 2.6 m/s)
Visibility: 6 or more miles (10+ km)
Ceiling: ceiling and visibility are OK
Clouds: unknown
Weather: no significant weather observed at this time

METAR text: EYVI 150950Z 36008KT 300V050 CAVOK 24/11 Q1019 NOSIG
Conditions at: EYVI (VILNIUS INTL , LT) observed 0950 UTC 15 June 2019
Temperature: 24.0°C (75°F)
Dewpoint: 11.0°C (52°F) [RH = 44%]
Pressure (altimeter): 30.09 inches Hg (1019.0 mb)
Winds: from the N (360 degrees) at 9 MPH (8 knots; 4.1 m/s)
Visibility: 6 or more miles (10+ km)
Ceiling: ceiling and visibility are OK
Clouds: unknown
Weather: no significant weather observed at this time

METAR text: EYVI 150920Z 05005KT 330V110 CAVOK 24/11 Q1019 NOSIG
Conditions at: EYVI (VILNIUS INTL , LT) observed 0920 UTC 15 June 2019
Temperature: 24.0°C (75°F)
Dewpoint: 11.0°C (52°F) [RH = 44%]
Pressure (altimeter): 30.09 inches Hg (1019.0 mb)
Winds: from the NE (50 degrees) at 6 MPH (5 knots; 2.6 m/s)
Visibility: 6 or more miles (10+ km)
Ceiling: ceiling and visibility are OK
Clouds: unknown
Weather: no significant weather observed at this time

METAR text: EYVI 150850Z VRB05KT 9999 SCT040 24/11 Q1019 NOSIG
Conditions at: EYVI (VILNIUS INTL , LT) observed 0850 UTC 15 June 2019
Temperature: 24.0°C (75°F)
Dewpoint: 11.0°C (52°F) [RH = 44%]
Pressure (altimeter): 30.09 inches Hg (1019.0 mb)
Winds: variable direction winds at 6 MPH (5 knots; 2.6 m/s)
Visibility: 6 or more miles (10+ km)
Ceiling: at least 12,000 feet AGL
Clouds: scattered clouds at 4000 feet AGL
Weather: no significant weather observed at this time

METAR text: EYVI 150820Z VRB03KT 9999 SCT036 23/11 Q1020 NOSIG
Conditions at: EYVI (VILNIUS INTL , LT) observed 0820 UTC 15 June 2019
Temperature: 23.0°C (73°F)
Dewpoint: 11.0°C (52°F) [RH = 47%]
Pressure (altimeter): 30.12 inches Hg (1020.0 mb)
Winds: variable direction winds at 3 MPH (3 knots; 1.5 m/s)
Visibility: 6 or more miles (10+ km)
Ceiling: at least 12,000 feet AGL
Clouds: scattered clouds at 3600 feet AGL
Weather: no significant weather observed at this time

METAR text: EYVI 150750Z 04005KT 350V100 9999 BKN033 23/11 Q1020 NOSIG
Conditions at: EYVI (VILNIUS INTL , LT) observed 0750 UTC 15 June 2019
Temperature: 23.0°C (73°F)
Dewpoint: 11.0°C (52°F) [RH = 47%]
Pressure (altimeter): 30.12 inches Hg (1020.0 mb)
Winds: from the NE (40 degrees) at 6 MPH (5 knots; 2.6 m/s)
Visibility: 6 or more miles (10+ km)
Ceiling: 3300 feet AGL
Clouds: broken clouds at 3300 feet AGL
Weather: no significant weather observed at this time

METAR text: EYVI 150720Z 06004KT 350V110 CAVOK 22/13 Q1020 NOSIG
Conditions at: EYVI (VILNIUS INTL , LT) observed 0720 UTC 15 June 2019
Temperature: 22.0°C (72°F)
Dewpoint: 13.0°C (55°F) [RH = 57%]
Pressure (altimeter): 30.12 inches Hg (1020.0 mb)
Winds: from the ENE (60 degrees) at 5 MPH (4 knots; 2.1 m/s)
Visibility: 6 or more miles (10+ km)
Ceiling: ceiling and visibility are OK
Clouds: unknown
Weather: no significant weather observed at this time

METAR text: EYVI 150650Z 04006KT 350V100 CAVOK 21/14 Q1020 NOSIG
Conditions at: EYVI (VILNIUS INTL , LT) observed 0650 UTC 15 June 2019
Temperature: 21.0°C (70°F)
Dewpoint: 14.0°C (57°F) [RH = 64%]
Pressure (altimeter): 30.12 inches Hg (1020.0 mb)
Winds: from the NE (40 degrees) at 7 MPH (6 knots; 3.1 m/s)
Visibility: 6 or more miles (10+ km)
Ceiling: ceiling and visibility are OK
Clouds: unknown
Weather: no significant weather observed at this time

METAR text: EYVI 150620Z 05007KT 010V090 CAVOK 21/14 Q1020 NOSIG
Conditions at: EYVI (VILNIUS INTL , LT) observed 0620 UTC 15 June 2019
Temperature: 21.0°C (70°F)
Dewpoint: 14.0°C (57°F) [RH = 64%]
Pressure (altimeter): 30.12 inches Hg (1020.0 mb)
Winds: from the NE (50 degrees) at 8 MPH (7 knots; 3.6 m/s)
Visibility: 6 or more miles (10+ km)
Ceiling: ceiling and visibility are OK
Clouds: unknown
Weather: no significant weather observed at this time

METAR text: EYVI 150550Z 04006KT 9999 SCT042 20/13 Q1020 NOSIG
Conditions at: EYVI (VILNIUS INTL , LT) observed 0550 UTC 15 June 2019
Temperature: 20.0°C (68°F)
Dewpoint: 13.0°C (55°F) [RH = 64%]
Pressure (altimeter): 30.12 inches Hg (1020.0 mb)
Winds: from the NE (40 degrees) at 7 MPH (6 knots; 3.1 m/s)
Visibility: 6 or more miles (10+ km)
Ceiling: at least 12,000 feet AGL
Clouds: scattered clouds at 4200 feet AGL
Weather: no significant weather observed at this time

METAR text: EYVI 150520Z 04006KT 9999 BKN043 19/12 Q1020 NOSIG
Conditions at: EYVI (VILNIUS INTL , LT) observed 0520 UTC 15 June 2019
Temperature: 19.0°C (66°F)
Dewpoint: 12.0°C (54°F) [RH = 64%]
Pressure (altimeter): 30.12 inches Hg (1020.0 mb)
Winds: from the NE (40 degrees) at 7 MPH (6 knots; 3.1 m/s)
Visibility: 6 or more miles (10+ km)
Ceiling: 4300 feet AGL
Clouds: broken clouds at 4300 feet AGL
Weather: no significant weather observed at this time

METAR text: EYVI 150450Z 03007KT CAVOK 18/12 Q1020 NOSIG
Conditions at: EYVI (VILNIUS INTL , LT) observed 0450 UTC 15 June 2019
Temperature: 18.0°C (64°F)
Dewpoint: 12.0°C (54°F) [RH = 68%]
Pressure (altimeter): 30.12 inches Hg (1020.0 mb)
Winds: from the NNE (30 degrees) at 8 MPH (7 knots; 3.6 m/s)
Visibility: 6 or more miles (10+ km)
Ceiling: ceiling and visibility are OK
Clouds: unknown
Weather: no significant weather observed at this time

Forecast for: EYVI (VILNIUS INTL , LT)
Text: TAF EYVI 161105Z 1612/1712 VRB05KT 9999 BKN045
Forecast period: 1200 to 1900 UTC 16 June 2019
Forecast type: FROM: standard forecast or significant change
Winds: variable direction winds at 6 MPH (5 knots; 2.6 m/s)
Visibility: 6 or more miles 10+ km)
Ceiling: 4500 feet AGL
Clouds: broken clouds at 4500 feet AGL
Weather: no significant weather forecast for this period
Text: PROB40
Forecast period: 1200 to 1500 UTC 16 June 2019
Forecast type: TEMPORARY: The following changes expected for less than half the time period
Visibility: missing
Ceiling: 3500 feet AGL
Clouds: broken clouds at 3500 feet AGL
Weather: TSRA  (rain associated with thunderstorm(s))
Text: TEMPO 1612/1615 TSRA BKN035CB
Forecast period: 1900 UTC 16 June 2019 to 1200 UTC 17 June 2019
Forecast type: BECOMING: Conditions expected to become as follows by 2100 UTC 16 June 2019
Winds: from the W (270 degrees) at 9 MPH (8 knots; 4.1 m/s)
Visibility: 6 or more miles 10+ km)
Ceiling: 1500 feet AGL
Clouds: broken clouds at 1500 feet AGL
Weather: no significant weather forecast for this period
Text: BECMG 1619/1621 27008KT BKN015
Forecast period: 2100 UTC 16 June 2019 to 0400 UTC 17 June 2019
Forecast type: TEMPORARY: The following changes expected for less than half the time period
Visibility: 0.93 miles (1.50 km)
Ceiling: 300 feet AGL
Clouds: broken clouds at 300 feet AGL
Weather: BR  (mist)